sensor_id;sensor_type;location;lat;lon;timestamp;pressure;altitude;pressure_sealevel;temperature;humidity
3150;BME280;32503;47.748;8.960;2023-12-20T00:02:17;97126.78;;;7.56;65.56
3150;BME280;32503;47.748;8.960;2023-12-20T00:04:44;97114.94;;;7.57;65.40
3150;BME280;32503;47.748;8.960;2023-12-20T00:07:11;97125.56;;;7.54;65.62
3150;BME280;32503;47.748;8.960;2023-12-20T00:09:38;97132.69;;;7.50;65.64
3150;BME280;32503;47.748;8.960;2023-12-20T00:12:07;97113.09;;;7.49;65.32
3150;BME280;32503;47.748;8.960;2023-12-20T00:14:34;97108.84;;;7.48;65.18
3150;BME280;32503;47.748;8.960;2023-12-20T00:17:02;97103.78;;;7.47;65.53
3150;BME280;32503;47.748;8.960;2023-12-20T00:19:29;97101.53;;;7.49;65.14
3150;BME280;32503;47.748;8.960;2023-12-20T00:21:56;97101.22;;;7.50;65.21
3150;BME280;32503;47.748;8.960;2023-12-20T00:24:25;97093.66;;;7.44;65.02
3150;BME280;32503;47.748;8.960;2023-12-20T00:26:52;97098.25;;;7.43;65.16
3150;BME280;32503;47.748;8.960;2023-12-20T00:29:20;97092.22;;;7.46;64.97
3150;BME280;32503;47.748;8.960;2023-12-20T00:31:48;97089.06;;;7.44;64.90
3150;BME280;32503;47.748;8.960;2023-12-20T00:34:15;97096.47;;;7.47;64.18
3150;BME280;32503;47.748;8.960;2023-12-20T00:36:42;97093.47;;;7.49;64.19
3150;BME280;32503;47.748;8.960;2023-12-20T00:39:09;97069.50;;;7.35;64.49
3150;BME280;32503;47.748;8.960;2023-12-20T00:41:36;97068.81;;;7.47;64.59
3150;BME280;32503;47.748;8.960;2023-12-20T00:44:03;97069.25;;;7.49;64.44
3150;BME280;32503;47.748;8.960;2023-12-20T00:46:32;97057.72;;;7.48;64.14
3150;BME280;32503;47.748;8.960;2023-12-20T00:48:59;97046.66;;;7.41;64.30
3150;BME280;32503;47.748;8.960;2023-12-20T00:51:26;97054.28;;;7.39;63.76
3150;BME280;32503;47.748;8.960;2023-12-20T00:53:53;97055.88;;;7.40;64.10
3150;BME280;32503;47.748;8.960;2023-12-20T00:56:20;97053.50;;;7.38;64.17
3150;BME280;32503;47.748;8.960;2023-12-20T00:58:47;97051.16;;;7.37;63.73
3150;BME280;32503;47.748;8.960;2023-12-20T01:01:15;97057.16;;;7.34;63.90
3150;BME280;32503;47.748;8.960;2023-12-20T01:03:44;97057.50;;;7.32;63.61
3150;BME280;32503;47.748;8.960;2023-12-20T01:06:11;97065.56;;;7.32;64.16
3150;BME280;32503;47.748;8.960;2023-12-20T01:08:38;97058.75;;;7.35;64.04
3150;BME280;32503;47.748;8.960;2023-12-20T01:11:06;97052.59;;;7.34;64.03
3150;BME280;32503;47.748;8.960;2023-12-20T01:13:33;97052.94;;;7.33;63.89
3150;BME280;32503;47.748;8.960;2023-12-20T01:16:00;97058.16;;;7.29;63.29
3150;BME280;32503;47.748;8.960;2023-12-20T01:18:27;97066.81;;;7.35;63.33
3150;BME280;32503;47.748;8.960;2023-12-20T01:20:56;97066.81;;;7.35;63.35
3150;BME280;32503;47.748;8.960;2023-12-20T01:23:23;97056.41;;;7.33;63.16
3150;BME280;32503;47.748;8.960;2023-12-20T01:25:50;97053.06;;;7.36;63.01
3150;BME280;32503;47.748;8.960;2023-12-20T01:28:17;97061.31;;;7.31;63.19
3150;BME280;32503;47.748;8.960;2023-12-20T01:30:44;97064.34;;;7.30;62.93
3150;BME280;32503;47.748;8.960;2023-12-20T01:33:11;97035.06;;;7.07;62.41
3150;BME280;32503;47.748;8.960;2023-12-20T01:35:38;97062.34;;;7.18;62.52
3150;BME280;32503;47.748;8.960;2023-12-20T01:38:07;97054.53;;;7.25;62.29
3150;BME280;32503;47.748;8.960;2023-12-20T01:40:34;97050.88;;;7.30;62.31
3150;BME280;32503;47.748;8.960;2023-12-20T01:43:02;97052.34;;;7.27;61.85
3150;BME280;32503;47.748;8.960;2023-12-20T01:45:29;97047.09;;;7.31;61.68
3150;BME280;32503;47.748;8.960;2023-12-20T01:47:58;97057.50;;;7.32;61.69
3150;BME280;32503;47.748;8.960;2023-12-20T01:50:26;97046.91;;;7.36;61.62
3150;BME280;32503;47.748;8.960;2023-12-20T01:52:55;97058.09;;;7.38;61.22
3150;BME280;32503;47.748;8.960;2023-12-20T01:55:25;97053.63;;;7.42;61.65
3150;BME280;32503;47.748;8.960;2023-12-20T01:57:54;97061.91;;;7.37;61.41
3150;BME280;32503;47.748;8.960;2023-12-20T02:00:22;97042.34;;;7.28;62.01
3150;BME280;32503;47.748;8.960;2023-12-20T02:02:53;97053.84;;;7.37;61.38
3150;BME280;32503;47.748;8.960;2023-12-20T02:05:21;97045.13;;;7.40;61.53
3150;BME280;32503;47.748;8.960;2023-12-20T02:07:48;97054.28;;;7.39;61.42
3150;BME280;32503;47.748;8.960;2023-12-20T02:10:16;97052.84;;;7.42;61.47
3150;BME280;32503;47.748;8.960;2023-12-20T02:12:44;97047.16;;;7.43;61.20
3150;BME280;32503;47.748;8.960;2023-12-20T02:15:11;97055.34;;;7.47;60.98
3150;BME280;32503;47.748;8.960;2023-12-20T02:17:40;97058.81;;;7.47;61.49
3150;BME280;32503;47.748;8.960;2023-12-20T02:20:07;97053.63;;;7.42;61.49
3150;BME280;32503;47.748;8.960;2023-12-20T02:22:36;97044.59;;;7.47;61.55
3150;BME280;32503;47.748;8.960;2023-12-20T02:25:04;97038.41;;;7.46;61.59
3150;BME280;32503;47.748;8.960;2023-12-20T02:27:31;97027.38;;;7.39;61.43
3150;BME280;32503;47.748;8.960;2023-12-20T02:29:58;97032.13;;;7.42;61.35
3150;BME280;32503;47.748;8.960;2023-12-20T02:32:25;97031.16;;;7.47;61.44
3150;BME280;32503;47.748;8.960;2023-12-20T02:34:53;97026.88;;;7.46;60.88
3150;BME280;32503;47.748;8.960;2023-12-20T02:37:20;97029.47;;;7.54;61.30
3150;BME280;32503;47.748;8.960;2023-12-20T02:39:48;97019.25;;;7.48;61.43
3150;BME280;32503;47.748;8.960;2023-12-20T02:42:15;97035.50;;;7.51;61.04
3150;BME280;32503;47.748;8.960;2023-12-20T02:44:42;97038.53;;;7.50;61.36
3150;BME280;32503;47.748;8.960;2023-12-20T02:47:09;97032.94;;;7.55;61.37
3150;BME280;32503;47.748;8.960;2023-12-20T02:49:36;97033.75;;;7.55;61.16
3150;BME280;32503;47.748;8.960;2023-12-20T02:52:04;97028.38;;;7.55;60.98
3150;BME280;32503;47.748;8.960;2023-12-20T02:54:32;97026.91;;;7.58;60.99
3150;BME280;32503;47.748;8.960;2023-12-20T02:57:00;97037.81;;;7.62;61.14
3150;BME280;32503;47.748;8.960;2023-12-20T02:59:27;97031.31;;;7.63;61.22
3150;BME280;32503;47.748;8.960;2023-12-20T03:01:54;97032.88;;;7.64;61.45
3150;BME280;32503;47.748;8.960;2023-12-20T03:04:21;97027.50;;;7.64;61.54
3150;BME280;32503;47.748;8.960;2023-12-20T03:06:48;97019.88;;;7.66;62.22
3150;BME280;32503;47.748;8.960;2023-12-20T03:09:16;97024.47;;;7.65;62.54
3150;BME280;32503;47.748;8.960;2023-12-20T03:11:43;97023.13;;;7.59;62.80
3150;BME280;32503;47.748;8.960;2023-12-20T03:14:11;97023.25;;;7.63;62.73
3150;BME280;32503;47.748;8.960;2023-12-20T03:16:38;97024.34;;;7.62;62.75
3150;BME280;32503;47.748;8.960;2023-12-20T03:19:05;97025.34;;;7.57;63.38
3150;BME280;32503;47.748;8.960;2023-12-20T03:21:32;97019.84;;;7.53;63.33
3150;BME280;32503;47.748;8.960;2023-12-20T03:23:59;97026.78;;;7.54;63.71
3150;BME280;32503;47.748;8.960;2023-12-20T03:26:26;97024.75;;;7.51;64.32
3150;BME280;32503;47.748;8.960;2023-12-20T03:28:53;97027.91;;;7.53;64.60
3150;BME280;32503;47.748;8.960;2023-12-20T03:31:22;97031.72;;;7.52;65.31
3150;BME280;32503;47.748;8.960;2023-12-20T03:33:49;97030.13;;;7.51;65.55
3150;BME280;32503;47.748;8.960;2023-12-20T03:36:16;97031.72;;;7.52;66.08
3150;BME280;32503;47.748;8.960;2023-12-20T03:38:43;97041.34;;;7.53;66.28
3150;BME280;32503;47.748;8.960;2023-12-20T03:41:11;97042.63;;;7.56;66.67
3150;BME280;32503;47.748;8.960;2023-12-20T03:43:38;97049.78;;;7.52;66.82
3150;BME280;32503;47.748;8.960;2023-12-20T03:46:05;97054.03;;;7.53;67.20
3150;BME280;32503;47.748;8.960;2023-12-20T03:48:33;97058.94;;;7.51;67.32
3150;BME280;32503;47.748;8.960;2023-12-20T03:51:00;97067.66;;;7.48;68.19
3150;BME280;32503;47.748;8.960;2023-12-20T03:53:27;97054.22;;;7.27;68.82
3150;BME280;32503;47.748;8.960;2023-12-20T03:55:54;97054.97;;;7.36;69.18
3150;BME280;32503;47.748;8.960;2023-12-20T03:58:21;97060.34;;;7.36;69.44
3150;BME280;32503;47.748;8.960;2023-12-20T04:00:48;97063.50;;;7.38;69.46
3150;BME280;32503;47.748;8.960;2023-12-20T04:03:15;97061.91;;;7.37;69.49
3150;BME280;32503;47.748;8.960;2023-12-20T04:05:44;97055.75;;;7.36;69.91
3150;BME280;32503;47.748;8.960;2023-12-20T04:08:11;97068.41;;;7.36;70.33
3150;BME280;32503;47.748;8.960;2023-12-20T04:10:38;97066.56;;;7.28;70.55
3150;BME280;32503;47.748;8.960;2023-12-20T04:13:05;97074.94;;;7.26;70.81
3150;BME280;32503;47.748;8.960;2023-12-20T04:15:32;97069.91;;;7.25;71.45
3150;BME280;32503;47.748;8.960;2023-12-20T04:18:00;97083.03;;;7.26;71.41
3150;BME280;32503;47.748;8.960;2023-12-20T04:20:27;97070.53;;;7.21;71.87
3150;BME280;32503;47.748;8.960;2023-12-20T04:22:55;97081.97;;;7.18;71.98
3150;BME280;32503;47.748;8.960;2023-12-20T04:25:22;97075.16;;;7.21;71.65
3150;BME280;32503;47.748;8.960;2023-12-20T04:27:49;97079.28;;;7.18;72.07
3150;BME280;32503;47.748;8.960;2023-12-20T04:30:17;97081.97;;;7.18;72.45
3150;BME280;32503;47.748;8.960;2023-12-20T04:32:44;97088.47;;;7.17;72.88
3150;BME280;32503;47.748;8.960;2023-12-20T04:35:11;97091.34;;;7.12;72.62
3150;BME280;32503;47.748;8.960;2023-12-20T04:37:38;97094.03;;;7.12;73.29
3150;BME280;32503;47.748;8.960;2023-12-20T04:40:07;97053.72;;;6.82;73.39
3150;BME280;32503;47.748;8.960;2023-12-20T04:42:35;97097.97;;;7.15;73.42
3150;BME280;32503;47.748;8.960;2023-12-20T04:45:02;97103.00;;;7.16;73.28
3150;BME280;32503;47.748;8.960;2023-12-20T04:47:29;97102.53;;;7.14;73.07
3150;BME280;32503;47.748;8.960;2023-12-20T04:49:56;97104.78;;;7.12;73.89
3150;BME280;32503;47.748;8.960;2023-12-20T04:52:23;97117.13;;;7.13;73.51
3150;BME280;32503;47.748;8.960;2023-12-20T04:54:50;97117.75;;;7.10;73.66
3150;BME280;32503;47.748;8.960;2023-12-20T04:57:19;97113.84;;;7.08;74.04
3150;BME280;32503;47.748;8.960;2023-12-20T04:59:46;97113.47;;;7.09;73.99
3150;BME280;32503;47.748;8.960;2023-12-20T05:02:13;97111.59;;;7.10;73.72
3150;BME280;32503;47.748;8.960;2023-12-20T05:04:40;97110.78;;;7.09;73.97
3150;BME280;32503;47.748;8.960;2023-12-20T05:07:07;97104.03;;;7.03;74.39
3150;BME280;32503;47.748;8.960;2023-12-20T05:09:34;97115.53;;;7.12;74.04
3150;BME280;32503;47.748;8.960;2023-12-20T05:12:01;97115.03;;;7.19;73.95
3150;BME280;32503;47.748;8.960;2023-12-20T05:14:30;97110.41;;;7.19;74.34
3150;BME280;32503;47.748;8.960;2023-12-20T05:16:57;97109.63;;;7.19;73.81
3150;BME280;32503;47.748;8.960;2023-12-20T05:19:24;97118.94;;;7.21;74.26
3150;BME280;32503;47.748;8.960;2023-12-20T05:21:52;97122.75;;;7.20;74.02
3150;BME280;32503;47.748;8.960;2023-12-20T05:24:19;97125.00;;;7.18;74.60
3150;BME280;32503;47.748;8.960;2023-12-20T05:26:46;97133.84;;;7.19;74.16
3150;BME280;32503;47.748;8.960;2023-12-20T05:29:13;97145.38;;;7.19;74.44
3150;BME280;32503;47.748;8.960;2023-12-20T05:31:41;97148.72;;;7.16;74.66
3150;BME280;32503;47.748;8.960;2023-12-20T05:34:08;97154.91;;;7.17;74.94
3150;BME280;32503;47.748;8.960;2023-12-20T05:36:36;97159.94;;;7.18;75.28
3150;BME280;32503;47.748;8.960;2023-12-20T05:39:03;97146.97;;;7.20;74.82
3150;BME280;32503;47.748;8.960;2023-12-20T05:41:30;97138.91;;;7.20;75.00
3150;BME280;32503;47.748;8.960;2023-12-20T05:43:57;97143.63;;;7.24;74.82
3150;BME280;32503;47.748;8.960;2023-12-20T05:46:25;97133.06;;;7.18;74.48
3150;BME280;32503;47.748;8.960;2023-12-20T05:48:54;97158.81;;;7.19;74.66
3150;BME280;32503;47.748;8.960;2023-12-20T05:51:21;97150.56;;;7.25;74.41
3150;BME280;32503;47.748;8.960;2023-12-20T05:53:49;97152.31;;;7.29;74.63
3150;BME280;32503;47.748;8.960;2023-12-20T05:56:16;97154.66;;;7.31;74.54
3150;BME280;32503;47.748;8.960;2023-12-20T05:58:43;97136.28;;;7.33;74.27
3150;BME280;32503;47.748;8.960;2023-12-20T06:01:10;97145.00;;;7.30;73.65
3150;BME280;32503;47.748;8.960;2023-12-20T06:03:41;97143.28;;;7.25;74.34
3150;BME280;32503;47.748;8.960;2023-12-20T06:06:10;97158.47;;;7.30;74.34
3150;BME280;32503;47.748;8.960;2023-12-20T06:08:38;97154.38;;;7.24;74.37
3150;BME280;32503;47.748;8.960;2023-12-20T06:11:06;97173.00;;;7.29;73.98
3150;BME280;32503;47.748;8.960;2023-12-20T06:13:33;97181.28;;;7.24;75.03
3150;BME280;32503;47.748;8.960;2023-12-20T06:16:00;97176.53;;;7.20;74.82
3150;BME280;32503;47.748;8.960;2023-12-20T06:18:27;97174.97;;;7.19;74.87
3150;BME280;32503;47.748;8.960;2023-12-20T06:20:55;97181.91;;;7.20;75.01
3150;BME280;32503;47.748;8.960;2023-12-20T06:23:23;97169.78;;;7.06;75.07
3150;BME280;32503;47.748;8.960;2023-12-20T06:25:50;97193.13;;;7.22;75.21
3150;BME280;32503;47.748;8.960;2023-12-20T06:28:17;97190.28;;;7.28;74.86
3150;BME280;32503;47.748;8.960;2023-12-20T06:30:44;97194.53;;;7.29;75.51
3150;BME280;32503;47.748;8.960;2023-12-20T06:33:13;97190.09;;;7.33;75.19
3150;BME280;32503;47.748;8.960;2023-12-20T06:35:40;97147.66;;;7.09;74.99
3150;BME280;32503;47.748;8.960;2023-12-20T06:38:07;97190.09;;;7.33;74.74
3150;BME280;32503;47.748;8.960;2023-12-20T06:40:36;97189.44;;;7.36;74.97
3150;BME280;32503;47.748;8.960;2023-12-20T06:43:03;97199.53;;;7.39;75.57
3150;BME280;32503;47.748;8.960;2023-12-20T06:45:37;97202.03;;;7.44;75.48
3150;BME280;32503;47.748;8.960;2023-12-20T06:48:06;97198.72;;;7.47;75.05
3150;BME280;32503;47.748;8.960;2023-12-20T06:50:33;97209.94;;;7.49;74.85
3150;BME280;32503;47.748;8.960;2023-12-20T06:53:00;97217.81;;;7.54;74.83
3150;BME280;32503;47.748;8.960;2023-12-20T06:55:32;97210.84;;;7.53;74.56
3150;BME280;32503;47.748;8.960;2023-12-20T06:58:01;97214.03;;;7.55;74.42
3150;BME280;32503;47.748;8.960;2023-12-20T07:00:30;97215.13;;;7.54;74.66
3150;BME280;32503;47.748;8.960;2023-12-20T07:02:57;97215.13;;;7.54;74.55
3150;BME280;32503;47.748;8.960;2023-12-20T07:05:24;97219.72;;;7.54;74.60
3150;BME280;32503;47.748;8.960;2023-12-20T07:07:52;97202.91;;;7.57;74.35
3150;BME280;32503;47.748;8.960;2023-12-20T07:10:19;97213.50;;;7.62;74.65
3150;BME280;32503;47.748;8.960;2023-12-20T07:12:46;97218.53;;;7.64;75.11
3150;BME280;32503;47.748;8.960;2023-12-20T07:15:15;97213.63;;;7.66;74.55
3150;BME280;32503;47.748;8.960;2023-12-20T07:17:43;97214.28;;;7.63;74.69
3150;BME280;32503;47.748;8.960;2023-12-20T07:20:11;97216.50;;;7.60;74.72
3150;BME280;32503;47.748;8.960;2023-12-20T07:22:38;97220.00;;;7.61;74.77
3150;BME280;32503;47.748;8.960;2023-12-20T07:25:06;97222.38;;;7.63;74.63
3150;BME280;32503;47.748;8.960;2023-12-20T07:27:33;97226.63;;;7.64;74.73
3150;BME280;32503;47.748;8.960;2023-12-20T07:30:00;97219.69;;;7.63;75.07
3150;BME280;32503;47.748;8.960;2023-12-20T07:32:29;97218.88;;;7.62;74.94
3150;BME280;32503;47.748;8.960;2023-12-20T07:34:56;97227.25;;;7.60;75.14
3150;BME280;32503;47.748;8.960;2023-12-20T07:37:23;97232.00;;;7.64;74.83
3150;BME280;32503;47.748;8.960;2023-12-20T07:39:50;97232.66;;;7.60;75.02
3150;BME280;32503;47.748;8.960;2023-12-20T07:42:17;97245.00;;;7.62;75.19
3150;BME280;32503;47.748;8.960;2023-12-20T07:44:44;97245.19;;;7.56;75.44
3150;BME280;32503;47.748;8.960;2023-12-20T07:47:11;97246.31;;;7.55;75.47
3150;BME280;32503;47.748;8.960;2023-12-20T07:49:42;97240.94;;;7.55;75.77
3150;BME280;32503;47.748;8.960;2023-12-20T07:52:09;97227.78;;;7.54;75.25
3150;BME280;32503;47.748;8.960;2023-12-20T07:54:36;97220.78;;;7.62;75.32
3150;BME280;32503;47.748;8.960;2023-12-20T07:57:04;97218.09;;;7.62;75.24
3150;BME280;32503;47.748;8.960;2023-12-20T07:59:31;97231.22;;;7.63;75.38
3150;BME280;32503;47.748;8.960;2023-12-20T08:01:58;97237.06;;;7.65;75.33
3150;BME280;32503;47.748;8.960;2023-12-20T08:04:25;97243.72;;;7.68;75.22
3150;BME280;32503;47.748;8.960;2023-12-20T08:06:54;97253.84;;;7.62;75.34
3150;BME280;32503;47.748;8.960;2023-12-20T08:09:21;97263.31;;;7.68;75.72
3150;BME280;32503;47.748;8.960;2023-12-20T08:11:48;97250.66;;;7.69;75.54
3150;BME280;32503;47.748;8.960;2023-12-20T08:14:16;97261.09;;;7.70;75.36
3150;BME280;32503;47.748;8.960;2023-12-20T08:16:43;97247.78;;;7.74;75.25
3150;BME280;32503;47.748;8.960;2023-12-20T08:19:10;97253.28;;;7.77;75.28
3150;BME280;32503;47.748;8.960;2023-12-20T08:21:37;97251.88;;;7.80;74.99
3150;BME280;32503;47.748;8.960;2023-12-20T08:24:06;97266.56;;;7.83;74.91
3150;BME280;32503;47.748;8.960;2023-12-20T08:26:34;97256.56;;;7.83;75.03
3150;BME280;32503;47.748;8.960;2023-12-20T08:29:01;97259.13;;;7.79;75.35
3150;BME280;32503;47.748;8.960;2023-12-20T08:31:28;97257.72;;;7.82;74.98
3150;BME280;32503;47.748;8.960;2023-12-20T08:33:55;97264.97;;;7.82;75.42
3150;BME280;32503;47.748;8.960;2023-12-20T08:36:22;97256.72;;;7.87;75.12
3150;BME280;32503;47.748;8.960;2023-12-20T08:38:49;97275.38;;;7.92;75.05
3150;BME280;32503;47.748;8.960;2023-12-20T08:41:18;97276.63;;;7.94;74.79
3150;BME280;32503;47.748;8.960;2023-12-20T08:43:46;97267.88;;;7.97;74.80
3150;BME280;32503;47.748;8.960;2023-12-20T08:46:14;97269.59;;;8.02;74.77
3150;BME280;32503;47.748;8.960;2023-12-20T08:48:41;97273.41;;;8.01;74.84
3150;BME280;32503;47.748;8.960;2023-12-20T08:51:09;97272.44;;;8.06;74.42
3150;BME280;32503;47.748;8.960;2023-12-20T08:53:37;97275.41;;;8.13;74.41
3150;BME280;32503;47.748;8.960;2023-12-20T08:56:04;97274.94;;;8.11;74.23
3150;BME280;32503;47.748;8.960;2023-12-20T08:58:33;97280.13;;;8.16;74.43
3150;BME280;32503;47.748;8.960;2023-12-20T09:01:02;97271.47;;;8.10;74.25
3150;BME280;32503;47.748;8.960;2023-12-20T09:03:29;97259.25;;;8.13;74.47
3150;BME280;32503;47.748;8.960;2023-12-20T09:05:56;97258.13;;;8.14;74.40
3150;BME280;32503;47.748;8.960;2023-12-20T09:08:23;97258.13;;;8.14;74.29
3150;BME280;32503;47.748;8.960;2023-12-20T09:10:50;97253.06;;;8.12;74.33
3150;BME280;32503;47.748;8.960;2023-12-20T09:13:17;97256.88;;;8.11;74.61
3150;BME280;32503;47.748;8.960;2023-12-20T09:15:46;97262.94;;;8.08;74.13
3150;BME280;32503;47.748;8.960;2023-12-20T09:18:13;97263.25;;;8.07;74.25
3150;BME280;32503;47.748;8.960;2023-12-20T09:20:40;97263.84;;;8.12;74.18
3150;BME280;32503;47.748;8.960;2023-12-20T09:23:07;97271.59;;;8.14;74.04
3150;BME280;32503;47.748;8.960;2023-12-20T09:25:34;97273.84;;;8.12;74.15
3150;BME280;32503;47.748;8.960;2023-12-20T09:28:01;97274.94;;;8.11;74.34
3150;BME280;32503;47.748;8.960;2023-12-20T09:30:28;97293.78;;;8.11;74.32
3150;BME280;32503;47.748;8.960;2023-12-20T09:32:57;97287.75;;;8.14;74.15
3150;BME280;32503;47.748;8.960;2023-12-20T09:35:24;97284.75;;;8.15;74.02
3150;BME280;32503;47.748;8.960;2023-12-20T09:37:51;97280.25;;;8.20;73.74
3150;BME280;32503;47.748;8.960;2023-12-20T09:40:19;97281.31;;;8.27;74.40
3150;BME280;32503;47.748;8.960;2023-12-20T09:42:51;97285.53;;;8.37;73.88
3150;BME280;32503;47.748;8.960;2023-12-20T09:45:21;97286.75;;;8.40;73.27
3150;BME280;32503;47.748;8.960;2023-12-20T09:47:50;97262.66;;;8.22;73.79
3150;BME280;32503;47.748;8.960;2023-12-20T09:50:20;97263.72;;;8.30;73.21
3150;BME280;32503;47.748;8.960;2023-12-20T09:52:50;97282.97;;;8.41;72.86
3150;BME280;32503;47.748;8.960;2023-12-20T09:55:18;97284.47;;;8.50;73.16
3150;BME280;32503;47.748;8.960;2023-12-20T09:57:46;97284.59;;;8.54;72.74
3150;BME280;32503;47.748;8.960;2023-12-20T10:00:14;97245.31;;;8.32;72.42
3150;BME280;32503;47.748;8.960;2023-12-20T10:02:50;97281.59;;;8.56;72.68
3150;BME280;32503;47.748;8.960;2023-12-20T10:05:19;97273.31;;;8.61;72.54
3150;BME280;32503;47.748;8.960;2023-12-20T10:07:52;97273.88;;;8.66;72.72
3150;BME280;32503;47.748;8.960;2023-12-20T10:10:19;97267.38;;;8.67;72.06
3150;BME280;32503;47.748;8.960;2023-12-20T10:13:02;97237.91;;;8.50;72.74
3150;BME280;32503;47.748;8.960;2023-12-20T10:15:30;97253.91;;;8.67;72.34
3150;BME280;32503;47.748;8.960;2023-12-20T10:17:57;97252.91;;;8.72;72.48
3150;BME280;32503;47.748;8.960;2023-12-20T10:20:26;97242.91;;;8.72;72.68
3150;BME280;32503;47.748;8.960;2023-12-20T10:22:54;97242.94;;;8.85;72.16
3150;BME280;32503;47.748;8.960;2023-12-20T10:25:22;97215.88;;;8.81;71.79
3150;BME280;32503;47.748;8.960;2023-12-20T10:27:50;97222.03;;;8.82;71.58
3150;BME280;32503;47.748;8.960;2023-12-20T10:30:34;97235.34;;;8.99;71.15
3150;BME280;32503;47.748;8.960;2023-12-20T10:33:02;97237.94;;;9.08;70.46
3150;BME280;32503;47.748;8.960;2023-12-20T10:35:31;97219.50;;;9.10;71.18
3150;BME280;32503;47.748;8.960;2023-12-20T10:37:59;97227.94;;;9.21;70.40
3150;BME280;32503;47.748;8.960;2023-12-20T10:40:29;97220.56;;;9.30;70.47
3150;BME280;32503;47.748;8.960;2023-12-20T10:42:58;97214.13;;;9.35;70.09
3150;BME280;32503;47.748;8.960;2023-12-20T10:45:26;97202.88;;;9.33;69.91
3150;BME280;32503;47.748;8.960;2023-12-20T10:47:53;97219.31;;;9.40;69.72
3150;BME280;32503;47.748;8.960;2023-12-20T10:50:20;97218.97;;;9.41;69.62
3150;BME280;32503;47.748;8.960;2023-12-20T10:52:50;97221.34;;;9.43;69.34
3150;BME280;32503;47.748;8.960;2023-12-20T10:55:21;97211.22;;;9.40;69.49
3150;BME280;32503;47.748;8.960;2023-12-20T10:57:49;97208.97;;;9.42;69.28
3150;BME280;32503;47.748;8.960;2023-12-20T11:00:18;97199.84;;;9.34;68.89
3150;BME280;32503;47.748;8.960;2023-12-20T11:02:46;97206.38;;;9.45;69.39
3150;BME280;32503;47.748;8.960;2023-12-20T11:05:25;97182.91;;;9.34;68.65
3150;BME280;32503;47.748;8.960;2023-12-20T11:07:59;97197.38;;;9.41;69.45
3150;BME280;32503;47.748;8.960;2023-12-20T11:10:37;97188.41;;;9.37;69.22
3150;BME280;32503;47.748;8.960;2023-12-20T11:15:52;97186.28;;;9.96;69.14
3150;BME280;32503;47.748;8.960;2023-12-20T11:18:20;97190.53;;;10.37;66.58
3150;BME280;32503;47.748;8.960;2023-12-20T11:20:47;97197.25;;;10.72;65.74
3150;BME280;32503;47.748;8.960;2023-12-20T11:23:16;97167.28;;;10.93;64.14
3150;BME280;32503;47.748;8.960;2023-12-20T11:25:48;97181.03;;;11.35;63.18
3150;BME280;32503;47.748;8.960;2023-12-20T11:28:15;97175.63;;;11.71;61.77
3150;BME280;32503;47.748;8.960;2023-12-20T11:30:49;97186.13;;;12.08;61.10
3150;BME280;32503;47.748;8.960;2023-12-20T11:33:17;97186.06;;;12.24;60.24
3150;BME280;32503;47.748;8.960;2023-12-20T11:35:47;97175.63;;;12.45;59.38
3150;BME280;32503;47.748;8.960;2023-12-20T11:38:16;97181.59;;;12.74;58.43
3150;BME280;32503;47.748;8.960;2023-12-20T11:40:43;97178.50;;;12.99;58.03
3150;BME280;32503;47.748;8.960;2023-12-20T11:43:11;97179.84;;;13.08;58.21
3150;BME280;32503;47.748;8.960;2023-12-20T11:45:38;97177.97;;;12.89;57.16
3150;BME280;32503;47.748;8.960;2023-12-20T11:48:15;97170.59;;;12.67;56.80
3150;BME280;32503;47.748;8.960;2023-12-20T11:50:42;97175.50;;;12.38;57.56
3150;BME280;32503;47.748;8.960;2023-12-20T11:53:10;97175.22;;;12.24;57.43
3150;BME280;32503;47.748;8.960;2023-12-20T11:55:39;97175.34;;;12.11;57.93
3150;BME280;32503;47.748;8.960;2023-12-20T11:58:06;97179.50;;;12.05;58.52
3150;BME280;32503;47.748;8.960;2023-12-20T12:00:35;97181.34;;;12.01;58.81
3150;BME280;32503;47.748;8.960;2023-12-20T12:03:02;97168.66;;;12.05;59.12
3150;BME280;32503;47.748;8.960;2023-12-20T12:05:31;97173.00;;;11.90;58.61
3150;BME280;32503;47.748;8.960;2023-12-20T12:07:58;97157.41;;;11.52;59.32
3150;BME280;32503;47.748;8.960;2023-12-20T12:10:25;97170.81;;;11.45;60.11
3150;BME280;32503;47.748;8.960;2023-12-20T12:12:54;97161.28;;;11.51;60.42
3150;BME280;32503;47.748;8.960;2023-12-20T12:15:21;97167.38;;;11.64;60.78
3150;BME280;32503;47.748;8.960;2023-12-20T12:17:53;97168.41;;;11.59;59.74
3150;BME280;32503;47.748;8.960;2023-12-20T12:20:22;97170.25;;;11.55;59.34
3150;BME280;32503;47.748;8.960;2023-12-20T12:22:58;97176.22;;;11.45;58.95
3150;BME280;32503;47.748;8.960;2023-12-20T12:25:25;97175.47;;;11.28;58.99
3150;BME280;32503;47.748;8.960;2023-12-20T12:27:55;97177.09;;;11.17;58.32
3150;BME280;32503;47.748;8.960;2023-12-20T12:30:22;97180.72;;;11.05;58.11
3150;BME280;32503;47.748;8.960;2023-12-20T12:32:50;97172.69;;;10.93;58.88
3150;BME280;32503;47.748;8.960;2023-12-20T12:35:17;97178.00;;;10.89;58.88
3150;BME280;32503;47.748;8.960;2023-12-20T12:37:45;97172.75;;;10.80;57.88
3150;BME280;32503;47.748;8.960;2023-12-20T12:40:13;97176.34;;;10.85;58.20
3150;BME280;32503;47.748;8.960;2023-12-20T12:42:43;97184.53;;;10.88;57.47
3150;BME280;32503;47.748;8.960;2023-12-20T12:45:11;97163.72;;;10.60;57.61
3150;BME280;32503;47.748;8.960;2023-12-20T12:47:40;97182.41;;;10.66;57.24
3150;BME280;32503;47.748;8.960;2023-12-20T12:50:08;97193.75;;;10.55;58.22
3150;BME280;32503;47.748;8.960;2023-12-20T12:52:35;97186.56;;;10.47;57.92
3150;BME280;32503;47.748;8.960;2023-12-20T12:55:04;97188.03;;;10.44;58.43
3150;BME280;32503;47.748;8.960;2023-12-20T12:57:31;97188.31;;;10.39;58.43
3150;BME280;32503;47.748;8.960;2023-12-20T12:59:59;97182.91;;;10.39;58.71
3150;BME280;32503;47.748;8.960;2023-12-20T13:02:27;97198.56;;;10.34;58.56
3150;BME280;32503;47.748;8.960;2023-12-20T13:04:54;97192.72;;;10.19;59.26
3150;BME280;32503;47.748;8.960;2023-12-20T13:07:21;97187.69;;;10.05;60.09
3150;BME280;32503;47.748;8.960;2023-12-20T13:09:49;97188.06;;;9.92;59.98
3150;BME280;32503;47.748;8.960;2023-12-20T13:12:16;97200.16;;;9.82;60.32
3150;BME280;32503;47.748;8.960;2023-12-20T13:14:43;97193.06;;;9.77;61.48
3150;BME280;32503;47.748;8.960;2023-12-20T13:17:11;97196.81;;;9.73;61.56
3150;BME280;32503;47.748;8.960;2023-12-20T13:19:39;97194.88;;;9.73;61.52
3150;BME280;32503;47.748;8.960;2023-12-20T13:22:06;97200.50;;;9.68;62.50
3150;BME280;32503;47.748;8.960;2023-12-20T13:24:34;97198.03;;;9.63;61.89
3150;BME280;32503;47.748;8.960;2023-12-20T13:27:01;97178.94;;;9.43;61.16